createdAt,value
2018-07-08T00:00:56.839Z,3.40
2018-07-08T00:03:33.221Z,2.93
2018-07-08T00:06:08.889Z,3.00
2018-07-08T00:08:45.235Z,3.60
2018-07-08T00:11:22.060Z,3.30
2018-07-08T00:13:59.035Z,2.63
2018-07-08T00:16:36.207Z,3.07
2018-07-08T00:19:12.980Z,3.40
2018-07-08T00:21:49.934Z,3.50
2018-07-08T00:24:26.713Z,4.83
2018-07-08T00:27:03.935Z,3.70
2018-07-08T00:29:40.727Z,3.23
2018-07-08T00:32:17.623Z,3.70
2018-07-08T00:34:54.526Z,3.97
2018-07-08T00:37:31.456Z,3.30
2018-07-08T00:40:08.437Z,5.10
2018-07-08T00:42:45.115Z,4.47
2018-07-08T00:45:21.437Z,3.27
2018-07-08T00:47:58.992Z,3.17
2018-07-08T00:50:35.376Z,2.87
2018-07-08T00:53:12.746Z,2.87
2018-07-08T00:55:49.497Z,2.90
2018-07-08T00:58:26.407Z,2.30
2018-07-08T01:01:03.465Z,3.03
2018-07-08T01:03:40.382Z,3.23
2018-07-08T01:06:16.789Z,3.20
2018-07-08T01:08:53.124Z,3.70
2018-07-08T01:11:30.182Z,3.53
2018-07-08T01:14:06.798Z,4.03
2018-07-08T01:16:44.191Z,2.97
2018-07-08T01:19:20.739Z,2.80
2018-07-08T01:21:57.561Z,3.23
2018-07-08T01:24:34.553Z,3.17
2018-07-08T01:27:11.045Z,4.00
2018-07-08T01:29:48.134Z,3.13
2018-07-08T01:32:24.569Z,2.50
2018-07-08T01:35:01.244Z,3.50
2018-07-08T01:37:37.254Z,3.90
2018-07-08T01:40:13.591Z,3.33
2018-07-08T01:42:50.567Z,3.70
2018-07-08T01:45:27.609Z,3.90
2018-07-08T01:48:04.551Z,3.00
2018-07-08T01:50:40.671Z,3.10
2018-07-08T01:53:17.160Z,3.37
2018-07-08T01:55:54.020Z,3.00
2018-07-08T01:58:30.629Z,3.50
2018-07-08T02:01:07.550Z,3.77
2018-07-08T02:03:44.208Z,3.80
2018-07-08T02:06:21.352Z,3.50
2018-07-08T02:08:58.706Z,2.50
2018-07-08T02:11:34.530Z,3.00
2018-07-08T02:14:10.749Z,3.70
2018-07-08T02:16:47.821Z,2.80
2018-07-08T02:19:24.768Z,2.90
2018-07-08T02:22:01.020Z,2.47
2018-07-08T02:24:37.410Z,3.07
2018-07-08T02:27:14.352Z,3.20
2018-07-08T02:29:50.587Z,3.57
2018-07-08T02:32:26.940Z,4.17
2018-07-08T02:35:03.818Z,3.90
2018-07-08T02:37:40.778Z,2.43
2018-07-08T02:40:17.761Z,3.23
2018-07-08T02:42:54.708Z,3.40
2018-07-08T02:45:31.701Z,2.90
2018-07-08T02:48:08.924Z,2.83
2018-07-08T02:50:45.710Z,2.47
2018-07-08T02:53:23.099Z,3.43
2018-07-08T02:56:00.060Z,4.10
2018-07-08T02:58:37.543Z,3.53
2018-07-08T03:01:15.787Z,3.70
2018-07-08T03:03:53.182Z,3.47
2018-07-08T03:06:30.936Z,3.10
2018-07-08T03:09:09.787Z,3.30
2018-07-08T03:11:46.319Z,3.00
2018-07-08T03:14:23.873Z,3.00
2018-07-08T03:17:01.708Z,2.70
2018-07-08T03:19:38.695Z,3.40
2018-07-08T03:22:16.340Z,3.20
2018-07-08T03:24:52.808Z,2.70
2018-07-08T03:27:30.489Z,3.00
2018-07-08T03:30:07.477Z,3.37
2018-07-08T03:32:46.106Z,3.50
2018-07-08T03:35:23.098Z,2.90
2018-07-08T03:38:01.306Z,2.70
2018-07-08T03:40:39.381Z,2.83
2018-07-08T03:43:16.539Z,2.50
2018-07-08T03:48:57.678Z,3.03
2018-07-08T03:51:35.323Z,3.00
2018-07-08T03:54:44.474Z,3.43
2018-07-08T03:57:21.712Z,3.20
2018-07-08T03:59:59.318Z,2.97
2018-07-08T04:02:37.439Z,3.13
2018-07-08T04:05:15.954Z,2.80
2018-07-08T04:07:52.564Z,3.37
2018-07-08T04:10:37.483Z,3.20
2018-07-08T04:13:16.847Z,3.30
2018-07-08T04:15:53.587Z,3.07
2018-07-08T04:18:29.880Z,2.77
2018-07-08T04:21:06.926Z,2.63
2018-07-08T04:23:45.181Z,2.70
2018-07-08T04:26:23.643Z,3.43
2018-07-08T04:29:00.014Z,2.87
2018-07-08T04:31:37.301Z,3.40
2018-07-08T04:34:15.121Z,3.10
2018-07-08T04:36:52.855Z,2.50
2018-07-08T04:39:29.522Z,2.73
2018-07-08T04:42:06.457Z,2.60
2018-07-08T04:44:42.443Z,3.50
2018-07-08T04:47:19.121Z,3.30
2018-07-08T04:49:55.224Z,2.63
2018-07-08T04:52:32.862Z,3.27
2018-07-08T04:55:10.111Z,2.97
2018-07-08T04:57:46.994Z,2.90
2018-07-08T05:00:23.733Z,3.00
2018-07-08T05:03:00.899Z,2.77
2018-07-08T05:05:37.791Z,2.80
2018-07-08T05:08:14.754Z,3.47
2018-07-08T05:10:51.860Z,3.60
2018-07-08T05:13:28.811Z,3.30
2018-07-08T05:16:05.591Z,3.10
2018-07-08T05:18:42.360Z,2.80
2018-07-08T05:21:19.359Z,2.97
2018-07-08T05:23:57.343Z,3.60
2018-07-08T05:26:34.327Z,3.00
2018-07-08T05:29:11.539Z,2.90
2018-07-08T05:31:49.357Z,3.07
2018-07-08T05:34:26.777Z,3.20
2018-07-08T05:37:03.195Z,3.30
2018-07-08T05:39:40.136Z,2.90
2018-07-08T05:42:17.712Z,3.40
2018-07-08T05:44:54.931Z,3.27
2018-07-08T05:47:32.375Z,2.50
2018-07-08T05:50:08.803Z,2.80
2018-07-08T05:52:45.696Z,2.33
2018-07-08T05:55:23.150Z,2.30
2018-07-08T05:57:59.462Z,2.90
2018-07-08T06:00:36.405Z,2.40
2018-07-08T06:03:13.527Z,2.30
2018-07-08T06:05:50.041Z,3.03
2018-07-08T06:08:26.801Z,2.93
2018-07-08T06:11:03.724Z,2.17
2018-07-08T06:13:40.675Z,2.47
2018-07-08T06:16:17.841Z,2.70
2018-07-08T06:18:54.839Z,2.20
2018-07-08T06:21:31.812Z,2.20
2018-07-08T06:24:08.509Z,2.73
2018-07-08T06:26:45.378Z,2.73
2018-07-08T06:29:22.319Z,2.47
2018-07-08T06:31:58.991Z,2.10
2018-07-08T06:34:36.190Z,2.63
2018-07-08T06:37:12.976Z,2.17
2018-07-08T06:39:50.104Z,2.30
2018-07-08T06:42:26.750Z,3.03
2018-07-08T06:45:03.646Z,2.90
2018-07-08T06:47:40.387Z,3.80
2018-07-08T06:50:17.104Z,2.20
2018-07-08T06:52:54.733Z,2.33
2018-07-08T06:55:30.583Z,2.10
2018-07-08T06:58:07.096Z,2.60
2018-07-08T07:00:44.213Z,2.33
2018-07-08T07:03:21.015Z,2.23
2018-07-08T07:05:57.462Z,2.27
2018-07-08T07:08:33.964Z,2.90
2018-07-08T07:11:10.715Z,2.47
2018-07-08T07:13:47.858Z,2.47
2018-07-08T07:16:24.698Z,1.90
2018-07-08T07:19:07.245Z,2.73
2018-07-08T07:21:43.714Z,2.27
2018-07-08T07:24:20.296Z,2.57
2018-07-08T07:26:57.212Z,2.57
2018-07-08T07:29:34.223Z,2.80
2018-07-08T07:32:10.749Z,2.33
2018-07-08T07:34:47.907Z,1.93
2018-07-08T07:37:24.794Z,2.27
2018-07-08T07:40:01.741Z,2.60
2018-07-08T07:42:38.733Z,1.87
2018-07-08T07:45:15.613Z,1.80
2018-07-08T07:47:52.041Z,2.03
2018-07-08T07:50:28.556Z,1.90
2018-07-08T07:53:05.189Z,1.57
2018-07-08T07:55:45.247Z,1.70
2018-07-08T07:58:21.780Z,1.60
2018-07-08T08:00:58.252Z,1.90
2018-07-08T08:03:35.207Z,1.47
2018-07-08T08:06:12.394Z,1.90
2018-07-08T08:08:48.975Z,1.90
2018-07-08T08:11:26.103Z,1.67
2018-07-08T08:14:03.482Z,1.20
2018-07-08T08:16:40.001Z,1.93
2018-07-08T08:19:16.471Z,1.37
2018-07-08T08:21:52.838Z,1.90
2018-07-08T08:24:29.586Z,1.50
2018-07-08T08:27:07.125Z,1.20
2018-07-08T08:29:43.920Z,1.70
2018-07-08T08:32:21.034Z,1.70
2018-07-08T08:35:15.764Z,1.57
2018-07-08T08:37:54.609Z,2.40
2018-07-08T08:40:31.539Z,2.20
2018-07-08T08:43:07.699Z,1.87
2018-07-08T08:45:44.183Z,1.80
2018-07-08T08:48:20.903Z,1.73
2018-07-08T08:50:57.803Z,1.67
2018-07-08T08:53:34.748Z,2.07
2018-07-08T08:56:12.065Z,1.90
2018-07-08T08:58:49.480Z,1.90
2018-07-08T09:01:26.305Z,1.73
2018-07-08T09:04:03.308Z,1.70
2018-07-08T09:06:40.118Z,1.73
2018-07-08T09:09:17.178Z,1.63
2018-07-08T09:11:53.818Z,1.37
2018-07-08T09:14:31.637Z,1.30
2018-07-08T09:17:08.631Z,1.23
2018-07-08T09:19:45.410Z,1.37
2018-07-08T09:22:21.565Z,1.30
2018-07-08T09:24:57.898Z,1.87
2018-07-08T09:27:35.274Z,1.57
2018-07-08T09:30:11.727Z,1.30
2018-07-08T09:32:49.531Z,1.63
2018-07-08T09:35:26.872Z,1.47
2018-07-08T09:38:03.179Z,2.73
2018-07-08T09:40:40.454Z,1.97
2018-07-08T09:43:17.577Z,1.60
2018-07-08T09:45:54.541Z,1.77
2018-07-08T09:48:30.822Z,1.37
2018-07-08T09:51:07.332Z,1.90
2018-07-08T09:53:44.067Z,1.40
2018-07-08T09:56:23.843Z,1.67
2018-07-08T09:59:00.873Z,1.40
2018-07-08T10:01:41.654Z,1.50
2018-07-08T10:04:21.153Z,1.43
2018-07-08T10:06:58.330Z,1.60
2018-07-08T10:09:35.239Z,1.30
2018-07-08T10:12:11.868Z,1.20
2018-07-08T10:14:49.165Z,1.40
2018-07-08T10:17:26.244Z,1.50
2018-07-08T10:20:02.914Z,1.90
2018-07-08T10:22:39.825Z,1.10
2018-07-08T10:25:16.400Z,1.70
2018-07-08T10:28:07.817Z,1.80
2018-07-08T10:30:44.667Z,1.60
2018-07-08T10:33:21.650Z,1.70
2018-07-08T10:36:00.209Z,1.53
2018-07-08T10:38:36.915Z,1.50
2018-07-08T10:41:13.682Z,1.70
2018-07-08T10:43:50.399Z,1.32
2018-07-08T10:46:27.207Z,1.30
2018-07-08T10:49:04.635Z,1.70
2018-07-08T10:51:41.464Z,1.23
2018-07-08T10:54:17.511Z,1.50
2018-07-08T10:56:54.910Z,1.70
2018-07-08T10:59:32.009Z,1.63
2018-07-08T11:02:09.566Z,1.23
2018-07-08T11:04:45.762Z,1.63
2018-07-08T11:07:23.191Z,1.43
2018-07-08T11:09:59.970Z,1.63
2018-07-08T11:12:37.191Z,1.50
2018-07-08T11:15:14.362Z,1.97
2018-07-08T11:18:01.766Z,1.83
2018-07-08T11:20:39.315Z,1.97
2018-07-08T11:23:15.677Z,1.37
2018-07-08T11:25:52.525Z,1.83
2018-07-08T11:28:29.121Z,1.80
2018-07-08T11:31:06.004Z,2.23
2018-07-08T11:33:42.906Z,1.63
2018-07-08T11:36:20.237Z,2.30
2018-07-08T11:38:56.974Z,1.32
2018-07-08T11:41:33.507Z,1.42
2018-07-08T11:44:09.681Z,1.20
2018-07-08T11:46:46.314Z,1.50
2018-07-08T11:49:23.243Z,1.70
2018-07-08T11:51:59.638Z,1.33
2018-07-08T11:54:36.925Z,1.70
2018-07-08T11:57:14.123Z,1.53
2018-07-08T11:59:50.659Z,2.90
2018-07-08T12:02:27.605Z,1.97
2018-07-08T12:05:04.810Z,1.77
2018-07-08T12:07:41.236Z,1.80
2018-07-08T12:10:18.188Z,1.50
2018-07-08T12:12:54.880Z,1.80
2018-07-08T12:15:31.804Z,1.97
2018-07-08T12:18:09.082Z,1.87
2018-07-08T12:20:46.716Z,1.50
2018-07-08T12:23:23.502Z,1.63
2018-07-08T12:26:00.821Z,1.53
2018-07-08T12:28:38.529Z,1.53
2018-07-08T12:31:15.077Z,1.70
2018-07-08T12:33:51.844Z,1.73
2018-07-08T12:36:28.665Z,1.30
2018-07-08T12:39:07.564Z,1.70
2018-07-08T12:41:44.484Z,1.40
2018-07-08T12:44:21.223Z,1.93
2018-07-08T12:46:58.945Z,1.63
2018-07-08T12:49:35.923Z,2.07
2018-07-08T12:52:12.560Z,1.23
2018-07-08T12:54:49.398Z,1.40
2018-07-08T12:57:26.107Z,1.50
2018-07-08T13:00:03.112Z,1.53
2018-07-08T13:02:39.895Z,1.30
2018-07-08T13:05:17.009Z,1.73
2018-07-08T13:07:53.963Z,1.50
2018-07-08T13:10:30.268Z,2.10
2018-07-08T13:13:07.570Z,1.60
2018-07-08T13:15:44.145Z,1.90
2018-07-08T13:18:21.340Z,2.77
2018-07-08T13:20:58.036Z,2.57
2018-07-08T13:23:35.370Z,2.07
2018-07-08T13:26:12.070Z,1.80
2018-07-08T13:28:48.857Z,2.17
2018-07-08T13:31:25.282Z,1.90
2018-07-08T13:34:01.656Z,2.67
2018-07-08T13:36:38.480Z,2.60
2018-07-08T13:39:15.395Z,2.13
2018-07-08T13:41:51.906Z,2.57
2018-07-08T13:44:29.149Z,2.20
2018-07-08T13:47:05.672Z,1.70
2018-07-08T13:49:43.144Z,2.00
2018-07-08T13:52:20.827Z,1.33
2018-07-08T13:54:56.744Z,2.43
2018-07-08T13:57:33.111Z,3.40
2018-07-08T14:00:10.127Z,1.57
2018-07-08T14:02:46.777Z,2.00
2018-07-08T14:05:23.809Z,2.13
2018-07-08T14:08:00.695Z,1.97
2018-07-08T14:10:37.623Z,1.47
2018-07-08T14:13:14.648Z,2.10
2018-07-08T14:15:50.913Z,1.83
2018-07-08T14:18:27.704Z,1.80
2018-07-08T14:21:04.068Z,2.20
2018-07-08T14:23:41.229Z,2.30
2018-07-08T14:26:18.031Z,1.87
2018-07-08T14:28:55.186Z,1.50
2018-07-08T14:31:31.672Z,2.00
2018-07-08T14:34:08.847Z,2.50
2018-07-08T14:36:45.627Z,2.33
2018-07-08T14:39:22.584Z,1.90
2018-07-08T14:41:59.346Z,2.03
2018-07-08T14:44:37.599Z,1.93
2018-07-08T14:47:14.214Z,2.70
2018-07-08T14:49:51.047Z,2.03
2018-07-08T14:52:27.615Z,2.03
2018-07-08T14:55:04.303Z,2.20
2018-07-08T14:57:41.579Z,2.47
2018-07-08T15:00:18.492Z,1.80
2018-07-08T15:02:55.622Z,2.40
2018-07-08T15:05:32.443Z,2.27
2018-07-08T15:08:08.840Z,1.80
2018-07-08T15:10:46.007Z,1.70
2018-07-08T15:13:22.952Z,2.50
2018-07-08T15:15:59.789Z,2.43
2018-07-08T15:18:36.514Z,2.70
2018-07-08T15:21:13.557Z,2.33
2018-07-08T15:23:50.409Z,2.20
2018-07-08T15:26:27.402Z,1.70
2018-07-08T15:29:04.168Z,2.43
2018-07-08T15:31:40.716Z,1.53
2018-07-08T15:34:17.944Z,1.77
2018-07-08T15:36:55.124Z,2.37
2018-07-08T15:39:32.559Z,2.10
2018-07-08T15:42:09.257Z,2.03
2018-07-08T15:44:46.427Z,2.20
2018-07-08T15:47:22.839Z,1.90
2018-07-08T15:50:00.287Z,1.83
2018-07-08T15:52:36.835Z,2.00
2018-07-08T15:55:13.841Z,1.97
2018-07-08T15:57:51.333Z,1.90
2018-07-08T16:00:28.490Z,2.20
2018-07-08T16:03:05.438Z,2.27
2018-07-08T16:05:41.505Z,2.27
2018-07-08T16:08:18.155Z,2.37
2018-07-08T16:10:54.903Z,2.90
2018-07-08T16:13:32.048Z,2.17
2018-07-08T16:16:08.956Z,2.10
2018-07-08T16:18:45.252Z,2.10
2018-07-08T16:21:22.553Z,2.20
2018-07-08T16:23:59.335Z,2.00
2018-07-08T16:26:36.576Z,2.20
2018-07-08T16:29:13.493Z,2.30
2018-07-08T16:31:49.658Z,2.13
2018-07-08T16:34:25.942Z,2.40
2018-07-08T16:37:02.577Z,1.90
2018-07-08T16:39:40.213Z,2.57
2018-07-08T16:42:17.261Z,2.23
2018-07-08T16:44:56.165Z,2.50
2018-07-08T16:47:33.649Z,2.23
2018-07-08T16:50:11.114Z,2.30
2018-07-08T16:52:49.547Z,1.80
2018-07-08T16:55:25.909Z,2.43
2018-07-08T16:58:03.484Z,2.10
2018-07-08T17:00:39.783Z,1.70
2018-07-08T17:03:17.197Z,2.07
2018-07-08T17:05:54.156Z,2.83
2018-07-08T17:08:30.479Z,2.47
2018-07-08T17:11:07.519Z,2.43
2018-07-08T17:13:44.324Z,2.10
2018-07-08T17:16:20.736Z,2.40
2018-07-08T17:18:58.054Z,2.53
2018-07-08T17:21:36.054Z,2.80
2018-07-08T17:24:12.643Z,2.10
2018-07-08T17:26:49.987Z,2.43
2018-07-08T17:29:28.004Z,2.53
2018-07-08T17:32:05.720Z,2.77
2018-07-08T17:34:42.708Z,2.37
2018-07-08T17:37:19.775Z,2.20
2018-07-08T17:39:58.383Z,2.73
2018-07-08T17:42:37.273Z,2.30
2018-07-08T17:45:14.682Z,2.10
2018-07-08T17:47:50.999Z,2.67
2018-07-08T17:50:28.361Z,2.57
2018-07-08T17:53:05.144Z,3.80
2018-07-08T17:55:41.229Z,2.60
2018-07-08T17:58:18.620Z,2.20
2018-07-08T18:00:55.356Z,2.70
2018-07-08T18:03:32.529Z,3.30
2018-07-08T18:06:09.081Z,2.67
2018-07-08T18:08:46.363Z,3.20
2018-07-08T18:11:24.517Z,3.70
2018-07-08T18:14:01.681Z,3.40
2018-07-08T18:16:38.063Z,3.80
2018-07-08T18:19:14.870Z,3.30
2018-07-08T18:21:52.106Z,2.27
2018-07-08T18:24:29.560Z,2.77
2018-07-08T18:27:05.512Z,2.40
2018-07-08T18:29:42.334Z,3.57
2018-07-08T18:32:18.956Z,4.23
2018-07-08T18:34:55.395Z,3.47
2018-07-08T18:37:32.275Z,3.40
2018-07-08T18:40:09.418Z,3.30
2018-07-08T18:42:46.240Z,3.20
2018-07-08T18:45:22.798Z,3.03
2018-07-08T18:47:59.781Z,3.00
2018-07-08T18:50:36.804Z,4.10
2018-07-08T18:53:13.539Z,2.90
2018-07-08T18:55:50.232Z,3.17
2018-07-08T18:58:26.637Z,3.77
2018-07-08T19:01:03.446Z,4.00
2018-07-08T19:03:39.666Z,3.77
2018-07-08T19:06:16.936Z,4.00
2018-07-08T19:08:53.973Z,3.40
2018-07-08T19:11:30.992Z,3.13
2018-07-08T19:14:08.605Z,2.67
2018-07-08T19:16:47.034Z,3.70
2018-07-08T19:19:23.456Z,3.70
2018-07-08T19:22:00.675Z,3.57
2018-07-08T19:24:38.135Z,4.40
2018-07-08T19:27:15.647Z,2.73
2018-07-08T19:29:55.522Z,3.90
2018-07-08T19:32:32.779Z,4.07
2018-07-08T19:35:10.018Z,3.67
2018-07-08T19:37:47.703Z,4.93
2018-07-08T19:40:24.606Z,4.40
2018-07-08T19:43:01.262Z,4.37
2018-07-08T19:45:38.605Z,4.50
2018-07-08T19:48:15.811Z,4.17
2018-07-08T19:50:52.030Z,3.97
2018-07-08T19:53:29.937Z,15.33
2018-07-08T19:56:08.009Z,3.90
2018-07-08T19:58:45.307Z,4.50
2018-07-08T20:01:22.378Z,4.40
2018-07-08T20:03:58.880Z,3.77
2018-07-08T20:06:35.872Z,4.37
2018-07-08T20:09:13.015Z,3.90
2018-07-08T20:11:52.602Z,4.80
2018-07-08T20:14:30.443Z,4.60
2018-07-08T20:17:09.119Z,3.83
2018-07-08T20:19:47.130Z,3.60
2018-07-08T20:22:24.741Z,3.73
2018-07-08T20:25:01.347Z,3.23
2018-07-08T20:27:39.794Z,3.50
2018-07-08T20:30:16.757Z,3.87
2018-07-08T20:32:53.669Z,3.93
2018-07-08T20:35:30.634Z,4.37
2018-07-08T20:38:08.672Z,4.00
2018-07-08T20:40:46.517Z,4.13
2018-07-08T20:43:24.654Z,4.20
2018-07-08T20:46:01.666Z,3.33
2018-07-08T20:48:38.529Z,4.30
2018-07-08T20:51:19.320Z,4.60
2018-07-08T20:53:57.266Z,4.63
2018-07-08T20:56:35.191Z,4.37
2018-07-08T20:59:12.511Z,3.70
2018-07-08T21:01:50.417Z,4.03
2018-07-08T21:04:27.748Z,3.97
2018-07-08T21:07:05.238Z,3.40
2018-07-08T21:09:42.068Z,3.93
2018-07-08T21:12:19.838Z,4.07
2018-07-08T21:14:56.731Z,5.20
2018-07-08T21:17:34.268Z,4.50
2018-07-08T21:20:15.033Z,3.83
2018-07-08T21:22:52.032Z,5.53
2018-07-08T21:25:29.205Z,4.70
2018-07-08T21:28:06.536Z,5.10
2018-07-08T21:30:44.600Z,4.40
2018-07-08T21:33:23.252Z,4.97
2018-07-08T21:38:59.275Z,3.80
2018-07-08T21:41:36.911Z,4.07
2018-07-08T21:44:14.750Z,5.43
2018-07-08T21:46:53.140Z,3.73
2018-07-08T21:49:30.036Z,4.00
2018-07-08T21:52:07.376Z,3.70
2018-07-08T21:54:43.597Z,3.87
2018-07-08T21:57:21.214Z,3.30
2018-07-08T21:59:59.797Z,3.63
2018-07-08T22:02:38.948Z,3.90
2018-07-08T22:05:16.745Z,3.10
2018-07-08T22:07:59.241Z,3.03
2018-07-08T22:10:36.861Z,3.40
2018-07-08T22:13:14.957Z,3.17
2018-07-08T22:15:52.376Z,2.87
2018-07-08T22:18:31.921Z,3.70
2018-07-08T22:21:10.485Z,3.30
2018-07-08T22:23:48.451Z,3.90
2018-07-08T22:26:26.882Z,3.80
2018-07-08T22:29:04.296Z,3.97
2018-07-08T22:31:41.961Z,3.60
2018-07-08T22:34:19.277Z,4.40
2018-07-08T22:36:56.186Z,5.10
2018-07-08T22:39:33.507Z,5.10
2018-07-08T22:42:10.295Z,7.27
2018-07-08T22:44:46.888Z,7.73
2018-07-08T22:47:23.988Z,7.80
2018-07-08T22:50:00.135Z,8.73
2018-07-08T22:52:36.308Z,7.77
2018-07-08T22:55:13.574Z,5.57
2018-07-08T22:57:50.841Z,6.37
2018-07-08T23:00:37.952Z,4.00
2018-07-08T23:03:53.661Z,4.40
2018-07-08T23:06:29.893Z,4.77
2018-07-08T23:09:07.297Z,5.50
2018-07-08T23:11:43.460Z,4.37
2018-07-08T23:14:19.544Z,4.60
2018-07-08T23:16:57.058Z,4.43
2018-07-08T23:19:33.876Z,3.60
2018-07-08T23:22:11.218Z,4.67
2018-07-08T23:24:48.886Z,4.67
2018-07-08T23:27:26.164Z,4.87
2018-07-08T23:30:03.123Z,5.33
2018-07-08T23:32:39.882Z,5.10
2018-07-08T23:35:16.845Z,8.93
2018-07-08T23:37:53.992Z,7.47
2018-07-08T23:40:30.552Z,5.70
2018-07-08T23:43:10.682Z,5.90
2018-07-08T23:45:47.783Z,6.40
2018-07-08T23:48:25.395Z,4.90
2018-07-08T23:51:02.634Z,5.13
2018-07-08T23:53:39.492Z,5.50
2018-07-08T23:56:15.938Z,7.70
2018-07-08T23:58:52.447Z,5.50
